This is the latest recevied weather packets stored in our database for station/object SALT. If no packets are shown the sender has not sent any weather packets the latest 10 day(s).
| Time | Temp. | Humidity | Pressure | Rain* | Wind** | Luminosity | Snow |
|---|---|---|---|---|---|---|---|
| 1778086195 | 13.33° C | 51% | 1020.9 hPa | 0 mm | - | - | - |
| 1778085590 | 13.33° C | 52% | 1021 hPa | 0 mm | - | - | - |
| 1778084987 | 13.33° C | 52% | 1021.1 hPa | 0 mm | - | - | - |
| 1778084385 | 13.89° C | 52% | 1021 hPa | 0 mm | - | - | - |
| 1778083782 | 13.33° C | 54% | 1021 hPa | 0 mm | - | - | - |
| 1778083179 | 13.33° C | 52% | 1020.8 hPa | 0 mm | - | - | - |
| 1778082577 | 13.33° C | 53% | 1020.8 hPa | 0 mm | - | - | - |
| 1778081369 | 13.33° C | 55% | 1020.8 hPa | 0 mm | - | - | - |
| 1778080767 | 13.33° C | 55% | 1020.8 hPa | 0 mm | - | - | - |
| 1778080164 | 13.89° C | 54% | 1021 hPa | 0 mm | - | - | - |
| 1778079562 | 13.89° C | 51% | 1020.9 hPa | 0 mm | - | - | - |
| 1778078960 | 13.33° C | 54% | 1020.9 hPa | 0 mm | - | - | - |
| 1778078355 | 13.33° C | 52% | 1021 hPa | 0 mm | - | - | - |
| 1778077752 | 13.33° C | 52% | 1021 hPa | 0 mm | - | - | - |
| 1778077149 | 12.78° C | 53% | 1021.2 hPa | 0 mm | - | - | - |
| 1778076546 | 12.22° C | 56% | 1021.3 hPa | 0 mm | - | - | - |
| 1778075944 | 11.11° C | 59% | 1021.3 hPa | 0 mm | - | - | - |
| 1778074736 | 8.89° C | 65% | 1021.2 hPa | 0 mm | - | - | - |
| 1778074133 | 8.33° C | 68% | 1021.2 hPa | 0 mm | - | - | - |
| 1778073531 | 7.78° C | 68% | 1021.1 hPa | 0 mm | - | - | - |
| 1778072928 | 8.33° C | 65% | 1021 hPa | 0 mm | - | - | - |
| 1778072325 | 8.33° C | 63% | 1021 hPa | 0 mm | - | - | - |
| 1778071722 | 8.33° C | 62% | 1021 hPa | 0 mm | - | - | - |
| 1778071117 | 8.89° C | 61% | 1021 hPa | 0 mm | - | - | - |
| 1778070515 | 8.33° C | 61% | 1020.9 hPa | 0 mm | - | - | - |
* Rain latest 24 hours (hover to see other rain measurements)
** Current wind speed in m/s (hover to see current wind gust speed)